createdAt,value
2022-12-11T00:04:46.647Z,99.99
2022-12-11T00:09:48.893Z,99.99
2022-12-11T00:14:48.065Z,99.99
2022-12-11T00:19:49.277Z,99.99
2022-12-11T00:24:50.376Z,99.99
2022-12-11T00:29:52.600Z,99.99
2022-12-11T00:34:52.697Z,99.99
2022-12-11T00:39:52.814Z,99.99
2022-12-11T00:44:52.110Z,99.99
2022-12-11T00:49:53.386Z,99.99
2022-12-11T00:54:53.516Z,99.99
2022-12-11T00:59:54.727Z,99.99
2022-12-11T01:04:56.867Z,99.99
2022-12-11T01:09:57.011Z,99.99
2022-12-11T01:14:56.241Z,99.99
2022-12-11T01:19:57.473Z,99.99
2022-12-11T01:24:58.695Z,99.80
2022-12-11T01:29:59.987Z,99.59
2022-12-11T01:35:01.247Z,98.75
2022-12-11T01:40:02.328Z,98.75
2022-12-11T01:45:03.496Z,98.34
2022-12-11T01:50:04.745Z,98.44
2022-12-11T01:55:06.347Z,97.92
2022-12-11T02:00:05.576Z,98.65
2022-12-11T02:05:06.822Z,97.81
2022-12-11T02:10:07.910Z,98.24
2022-12-11T02:15:09.580Z,98.50
2022-12-11T02:20:08.937Z,98.29
2022-12-11T02:25:11.349Z,98.50
2022-12-11T02:30:10.693Z,98.82
2022-12-11T02:35:12.107Z,99.34
2022-12-11T02:40:11.371Z,99.44
2022-12-11T02:45:12.873Z,98.82
2022-12-11T02:50:12.138Z,98.82
2022-12-11T02:55:13.482Z,99.02
2022-12-11T03:00:14.718Z,98.67
2022-12-11T03:05:16.032Z,99.24
2022-12-11T03:10:17.328Z,99.55
2022-12-11T03:15:18.548Z,99.70
2022-12-11T03:20:19.625Z,99.38
2022-12-11T03:25:20.865Z,99.99
2022-12-11T03:30:22.029Z,99.64
2022-12-11T03:35:23.236Z,99.80
2022-12-11T03:40:25.337Z,99.38
2022-12-11T03:45:25.438Z,99.59
2022-12-11T03:50:24.686Z,99.43
2022-12-11T03:55:25.931Z,99.80
2022-12-11T04:00:27.174Z,99.43
2022-12-11T04:05:28.420Z,99.11
2022-12-11T04:10:29.522Z,99.90
2022-12-11T04:15:30.606Z,98.64
2022-12-11T04:20:31.833Z,99.21
2022-12-11T04:25:33.105Z,99.52
2022-12-11T04:30:35.198Z,99.99
2022-12-11T04:35:34.378Z,99.21
2022-12-11T04:40:35.592Z,98.83
2022-12-11T04:45:36.800Z,99.77
2022-12-11T04:50:38.944Z,99.67
2022-12-11T04:55:38.143Z,99.40
2022-12-11T05:00:39.352Z,99.15
2022-12-11T05:05:40.635Z,97.68
2022-12-11T05:10:44.502Z,97.95
2022-12-11T05:15:41.895Z,97.63
2022-12-11T05:20:43.035Z,96.69
2022-12-11T05:25:44.278Z,96.80
2022-12-11T05:30:45.418Z,96.53
2022-12-11T05:35:46.646Z,96.73
2022-12-11T05:40:47.743Z,96.90
2022-12-11T05:45:48.915Z,96.94
2022-12-11T05:50:50.149Z,97.68
2022-12-11T05:55:51.377Z,97.68
2022-12-11T06:00:52.567Z,98.35
2022-12-11T06:05:53.798Z,99.08
2022-12-11T06:10:55.008Z,98.39
2022-12-11T06:15:56.199Z,99.24
2022-12-11T06:20:57.408Z,99.19
2022-12-11T06:25:58.481Z,98.72
2022-12-11T06:30:59.694Z,97.68
2022-12-11T06:36:00.925Z,96.42
2022-12-11T06:41:02.124Z,95.10
2022-12-11T06:46:04.372Z,94.79
2022-12-11T06:51:03.698Z,93.95
2022-12-11T06:56:06.783Z,93.32
2022-12-11T07:01:06.067Z,93.95
2022-12-11T07:06:07.337Z,93.53
2022-12-11T07:11:08.549Z,92.80
2022-12-11T07:16:09.682Z,91.33
2022-12-11T07:21:10.873Z,91.16
2022-12-11T07:26:12.002Z,92.00
2022-12-11T07:31:13.253Z,88.64
2022-12-11T07:36:14.431Z,88.64
2022-12-11T07:41:15.530Z,88.54
2022-12-11T07:46:16.823Z,87.55
2022-12-11T07:51:18.079Z,85.77
2022-12-11T07:56:19.225Z,86.51
2022-12-11T08:01:21.423Z,86.08
2022-12-11T08:06:20.667Z,86.40
2022-12-11T08:11:21.752Z,86.29
2022-12-11T08:16:23.010Z,86.54
2022-12-11T08:21:24.544Z,86.76
2022-12-11T08:26:23.932Z,87.45
2022-12-11T08:31:25.060Z,87.97
2022-12-11T08:36:26.235Z,88.67
2022-12-11T08:41:26.677Z,89.36
2022-12-11T08:46:27.836Z,88.52
2022-12-11T08:51:28.973Z,87.74
2022-12-11T08:56:30.152Z,87.54
2022-12-11T09:01:32.351Z,87.29
2022-12-11T09:06:31.511Z,86.14
2022-12-11T09:11:32.600Z,88.19
2022-12-11T09:16:33.736Z,83.78
2022-12-11T09:21:34.873Z,81.62
2022-12-11T09:26:36.995Z,77.20
2022-12-11T09:31:36.137Z,79.75
2022-12-11T09:36:37.233Z,81.25
2022-12-11T09:41:38.394Z,81.42
2022-12-11T09:46:39.536Z,83.40
2022-12-11T09:51:41.702Z,83.72
2022-12-11T09:56:40.809Z,81.70
2022-12-11T10:01:41.989Z,80.58
2022-12-11T10:06:44.116Z,81.84
2022-12-11T10:11:43.282Z,81.63
2022-12-11T10:16:44.440Z,81.87
2022-12-11T10:21:45.535Z,81.73
2022-12-11T10:26:46.691Z,80.73
2022-12-11T10:31:47.827Z,81.32
2022-12-11T10:36:48.954Z,80.27
2022-12-11T10:41:50.141Z,81.59
2022-12-11T10:46:52.338Z,80.30
2022-12-11T10:51:51.527Z,79.88
2022-12-11T10:56:52.670Z,79.99
2022-12-11T11:01:53.914Z,79.57
2022-12-11T11:06:55.160Z,78.14
2022-12-11T11:11:56.371Z,77.73
2022-12-11T11:16:57.543Z,78.81
2022-12-11T11:21:58.689Z,79.33
2022-12-11T11:27:16.243Z,80.30
2022-12-11T11:32:01.822Z,78.21
2022-12-11T11:37:00.993Z,78.21
2022-12-11T11:42:02.118Z,79.36
2022-12-11T11:47:04.284Z,77.17
2022-12-11T11:52:05.359Z,78.04
2022-12-11T11:57:05.471Z,78.25
2022-12-11T12:02:04.615Z,77.45
2022-12-11T12:07:05.787Z,76.82
2022-12-11T12:12:06.964Z,76.89
2022-12-11T12:17:09.159Z,76.92
2022-12-11T12:22:09.368Z,76.30
2022-12-11T12:27:29.152Z,75.46
2022-12-11T12:32:08.659Z,76.30
2022-12-11T12:37:10.789Z,75.63
2022-12-11T12:42:10.900Z,77.66
2022-12-11T12:47:10.017Z,76.02
2022-12-11T12:52:11.178Z,75.60
2022-12-11T12:57:13.417Z,77.41
2022-12-11T13:02:12.716Z,78.49
2022-12-11T13:07:13.918Z,77.28
2022-12-11T13:12:17.126Z,78.22
2022-12-11T13:17:17.284Z,76.75
2022-12-11T13:22:17.414Z,77.17
2022-12-11T13:27:16.587Z,77.80
2022-12-11T13:32:18.728Z,78.15
2022-12-11T13:37:19.228Z,78.95
2022-12-11T13:42:18.427Z,79.99
2022-12-11T13:47:19.589Z,78.11
2022-12-11T13:52:20.830Z,79.58
2022-12-11T13:57:21.981Z,79.89
2022-12-11T14:02:23.383Z,79.68
2022-12-11T14:07:24.648Z,80.16
2022-12-11T14:12:25.813Z,79.64
2022-12-11T14:17:27.003Z,80.10
2022-12-11T14:22:28.158Z,79.68
2022-12-11T14:27:29.343Z,78.77
2022-12-11T14:32:30.645Z,78.36
2022-12-11T14:37:31.167Z,77.94
2022-12-11T14:42:30.333Z,79.72
2022-12-11T14:47:31.490Z,81.60
2022-12-11T14:52:32.717Z,82.65
2022-12-11T14:57:33.900Z,82.37
2022-12-11T15:02:36.208Z,83.77
2022-12-11T15:07:35.370Z,83.10
2022-12-11T15:12:37.500Z,83.62
2022-12-11T15:17:37.754Z,84.50
2022-12-11T15:22:36.874Z,85.27
2022-12-11T15:27:38.128Z,85.38
2022-12-11T15:32:39.350Z,86.46
2022-12-11T15:37:40.642Z,86.19
2022-12-11T15:42:41.041Z,85.94
2022-12-11T15:47:42.192Z,86.61
2022-12-11T15:52:43.685Z,86.82
2022-12-11T15:57:43.001Z,87.07
2022-12-11T16:02:47.952Z,87.32
2022-12-11T16:07:46.249Z,86.79
2022-12-11T16:12:45.625Z,88.97
2022-12-11T16:17:46.895Z,89.92
2022-12-11T16:22:48.212Z,90.91
2022-12-11T16:27:50.175Z,91.85
2022-12-11T16:32:49.580Z,91.51
2022-12-11T16:37:51.009Z,92.88
2022-12-11T16:42:52.217Z,93.30
2022-12-11T16:47:54.558Z,93.62
2022-12-11T16:52:53.845Z,94.14
2022-12-11T16:57:55.261Z,93.57
2022-12-11T17:02:54.641Z,92.63
2022-12-11T17:07:56.880Z,92.88
2022-12-11T17:12:57.217Z,93.79
2022-12-11T17:18:00.164Z,92.35
2022-12-11T17:22:57.657Z,92.88
2022-12-11T17:27:58.537Z,93.93
2022-12-11T17:32:57.932Z,94.14
2022-12-11T17:37:59.461Z,93.83
2022-12-11T17:42:58.872Z,94.25
2022-12-11T17:48:00.135Z,92.99
2022-12-11T17:53:01.375Z,92.54
2022-12-11T17:58:02.623Z,94.12
2022-12-11T18:03:03.785Z,94.38
2022-12-11T18:08:05.133Z,94.69
2022-12-11T18:13:07.259Z,94.38
2022-12-11T18:18:08.476Z,92.58
2022-12-11T18:23:08.009Z,90.65
2022-12-11T18:28:07.357Z,89.66
2022-12-11T18:33:07.550Z,89.14
2022-12-11T18:38:08.988Z,88.67
2022-12-11T18:43:08.171Z,89.62
2022-12-11T18:48:10.312Z,89.20
2022-12-11T18:53:10.126Z,88.86
2022-12-11T18:58:09.362Z,89.53
2022-12-11T19:03:10.761Z,89.84
2022-12-11T19:08:10.233Z,88.58
2022-12-11T19:13:10.690Z,88.37
2022-12-11T19:18:09.979Z,88.58
2022-12-11T19:23:11.470Z,88.48
2022-12-11T19:28:10.628Z,88.62
2022-12-11T19:33:12.120Z,88.98
2022-12-11T19:38:11.573Z,89.51
2022-12-11T19:43:13.004Z,89.97
2022-12-11T19:48:14.551Z,90.08
2022-12-11T19:53:14.124Z,90.45
2022-12-11T19:58:13.693Z,90.70
2022-12-11T20:03:13.144Z,89.82
2022-12-11T20:08:42.970Z,89.40
2022-12-11T20:13:14.987Z,89.19
2022-12-11T20:18:18.995Z,88.77
2022-12-11T20:23:14.684Z,88.56
2022-12-11T20:28:14.249Z,88.49
2022-12-11T20:33:24.950Z,89.48
2022-12-11T20:38:14.282Z,90.05
2022-12-11T20:43:15.744Z,90.54
2022-12-11T20:48:15.219Z,89.65
2022-12-11T20:53:14.860Z,88.35
2022-12-11T20:58:14.185Z,87.68
2022-12-11T21:03:15.543Z,86.72
2022-12-11T21:08:17.125Z,86.58
2022-12-11T21:13:17.450Z,85.95
2022-12-11T21:18:16.893Z,85.57
2022-12-11T21:23:18.345Z,85.57
2022-12-11T21:28:19.634Z,87.76
2022-12-11T21:33:21.109Z,90.16
2022-12-11T21:38:20.496Z,91.57
2022-12-11T21:43:21.824Z,91.36
2022-12-11T21:48:23.066Z,91.46
2022-12-11T21:53:24.357Z,93.19
2022-12-11T21:58:25.545Z,93.55
2022-12-11T22:03:26.771Z,94.25
2022-12-11T22:08:27.972Z,93.30
2022-12-11T22:13:29.180Z,93.34
2022-12-11T22:18:31.326Z,94.40
2022-12-11T22:23:30.462Z,93.55
2022-12-11T22:28:31.638Z,94.65
2022-12-11T22:33:32.783Z,94.13
2022-12-11T22:38:33.931Z,94.65
2022-12-11T22:43:35.082Z,94.81
2022-12-11T22:48:36.237Z,95.12
2022-12-11T22:53:37.462Z,95.17
2022-12-11T22:58:38.603Z,95.90
2022-12-11T23:03:39.862Z,95.48
2022-12-11T23:08:42.084Z,95.17
2022-12-11T23:13:41.367Z,94.74
2022-12-11T23:18:42.523Z,94.82
2022-12-11T23:23:44.648Z,89.88
2022-12-11T23:28:43.824Z,88.57
2022-12-11T23:33:44.992Z,88.36
2022-12-11T23:38:50.950Z,87.41
2022-12-11T23:43:46.219Z,87.09
2022-12-11T23:48:47.471Z,87.30
2022-12-11T23:53:48.744Z,87.55
2022-12-11T23:58:49.873Z,88.80
